sensor_id;sensor_type;location;lat;lon;timestamp;P1;durP1;ratioP1;P2;durP2;ratioP2
35245;SDS011;21379;50.962;6.960;2023-03-19T00:02:26;6.53;;;1.70;;
35245;SDS011;21379;50.962;6.960;2023-03-19T00:04:53;7.20;;;3.13;;
35245;SDS011;21379;50.962;6.960;2023-03-19T00:07:20;3.03;;;1.55;;
35245;SDS011;21379;50.962;6.960;2023-03-19T00:09:47;5.20;;;1.73;;
35245;SDS011;21379;50.962;6.960;2023-03-19T00:12:13;4.97;;;2.08;;
35245;SDS011;21379;50.962;6.960;2023-03-19T00:14:41;3.03;;;1.52;;
35245;SDS011;21379;50.962;6.960;2023-03-19T00:17:08;5.85;;;2.00;;
35245;SDS011;21379;50.962;6.960;2023-03-19T00:19:37;3.60;;;2.00;;
35245;SDS011;21379;50.962;6.960;2023-03-19T00:22:05;4.75;;;1.92;;
35245;SDS011;21379;50.962;6.960;2023-03-19T00:24:32;4.18;;;1.70;;
35245;SDS011;21379;50.962;6.960;2023-03-19T00:26:59;5.07;;;1.98;;
35245;SDS011;21379;50.962;6.960;2023-03-19T00:29:27;4.10;;;2.00;;
35245;SDS011;21379;50.962;6.960;2023-03-19T00:31:55;6.07;;;2.05;;
35245;SDS011;21379;50.962;6.960;2023-03-19T00:34:22;4.60;;;2.33;;
35245;SDS011;21379;50.962;6.960;2023-03-19T00:36:50;2.75;;;1.42;;
35245;SDS011;21379;50.962;6.960;2023-03-19T00:39:17;3.67;;;2.10;;
35245;SDS011;21379;50.962;6.960;2023-03-19T00:41:45;7.40;;;2.17;;
35245;SDS011;21379;50.962;6.960;2023-03-19T00:44:14;3.88;;;1.67;;
35245;SDS011;21379;50.962;6.960;2023-03-19T00:46:42;10.70;;;2.15;;
35245;SDS011;21379;50.962;6.960;2023-03-19T00:49:09;3.72;;;1.90;;
35245;SDS011;21379;50.962;6.960;2023-03-19T00:51:36;5.10;;;2.08;;
35245;SDS011;21379;50.962;6.960;2023-03-19T00:54:09;4.78;;;2.22;;
35245;SDS011;21379;50.962;6.960;2023-03-19T00:56:37;4.78;;;2.03;;
35245;SDS011;21379;50.962;6.960;2023-03-19T00:59:05;7.07;;;2.25;;
35245;SDS011;21379;50.962;6.960;2023-03-19T01:01:32;8.52;;;2.53;;
35245;SDS011;21379;50.962;6.960;2023-03-19T01:03:59;12.43;;;6.03;;
35245;SDS011;21379;50.962;6.960;2023-03-19T01:06:26;20.33;;;5.18;;
35245;SDS011;21379;50.962;6.960;2023-03-19T01:08:53;4.40;;;2.38;;
35245;SDS011;21379;50.962;6.960;2023-03-19T01:11:22;7.68;;;2.33;;
35245;SDS011;21379;50.962;6.960;2023-03-19T01:13:49;5.05;;;1.73;;
35245;SDS011;21379;50.962;6.960;2023-03-19T01:16:15;3.53;;;1.83;;
35245;SDS011;21379;50.962;6.960;2023-03-19T01:18:42;3.67;;;1.95;;
35245;SDS011;21379;50.962;6.960;2023-03-19T01:21:10;2.15;;;1.45;;
35245;SDS011;21379;50.962;6.960;2023-03-19T01:23:43;4.18;;;2.08;;
35245;SDS011;21379;50.962;6.960;2023-03-19T01:26:10;4.53;;;2.17;;
35245;SDS011;21379;50.962;6.960;2023-03-19T01:28:39;5.40;;;1.65;;
35245;SDS011;21379;50.962;6.960;2023-03-19T01:31:07;4.38;;;2.38;;
35245;SDS011;21379;50.962;6.960;2023-03-19T01:34:00;12.10;;;2.28;;
35245;SDS011;21379;50.962;6.960;2023-03-19T01:36:36;6.82;;;2.58;;
35245;SDS011;21379;50.962;6.960;2023-03-19T01:39:05;5.05;;;1.92;;
35245;SDS011;21379;50.962;6.960;2023-03-19T01:41:32;5.30;;;2.38;;
35245;SDS011;21379;50.962;6.960;2023-03-19T01:44:24;3.80;;;1.98;;
35245;SDS011;21379;50.962;6.960;2023-03-19T01:47:14;8.00;;;2.50;;
35245;SDS011;21379;50.962;6.960;2023-03-19T01:50:01;6.45;;;2.30;;
35245;SDS011;21379;50.962;6.960;2023-03-19T01:52:31;3.58;;;1.70;;
35245;SDS011;21379;50.962;6.960;2023-03-19T01:55:09;5.25;;;2.30;;
35245;SDS011;21379;50.962;6.960;2023-03-19T01:57:55;6.38;;;2.20;;
35245;SDS011;21379;50.962;6.960;2023-03-19T02:00:53;5.85;;;2.28;;
35245;SDS011;21379;50.962;6.960;2023-03-19T02:03:21;5.82;;;2.60;;
35245;SDS011;21379;50.962;6.960;2023-03-19T02:05:57;3.10;;;2.20;;
35245;SDS011;21379;50.962;6.960;2023-03-19T02:08:25;11.18;;;2.10;;
35245;SDS011;21379;50.962;6.960;2023-03-19T02:10:54;7.25;;;2.35;;
35245;SDS011;21379;50.962;6.960;2023-03-19T02:13:24;3.10;;;2.33;;
35245;SDS011;21379;50.962;6.960;2023-03-19T02:15:51;4.45;;;2.00;;
35245;SDS011;21379;50.962;6.960;2023-03-19T02:18:20;4.18;;;1.77;;
35245;SDS011;21379;50.962;6.960;2023-03-19T02:20:50;7.80;;;2.08;;
35245;SDS011;21379;50.962;6.960;2023-03-19T02:23:25;4.30;;;2.38;;
35245;SDS011;21379;50.962;6.960;2023-03-19T02:26:07;4.43;;;2.10;;
35245;SDS011;21379;50.962;6.960;2023-03-19T02:28:37;8.35;;;2.13;;
35245;SDS011;21379;50.962;6.960;2023-03-19T02:31:09;8.65;;;2.63;;
35245;SDS011;21379;50.962;6.960;2023-03-19T02:33:36;4.68;;;2.22;;
35245;SDS011;21379;50.962;6.960;2023-03-19T02:36:05;6.30;;;2.45;;
35245;SDS011;21379;50.962;6.960;2023-03-19T02:38:35;6.93;;;2.28;;
35245;SDS011;21379;50.962;6.960;2023-03-19T02:41:05;2.65;;;1.88;;
35245;SDS011;21379;50.962;6.960;2023-03-19T02:43:34;5.63;;;1.83;;
35245;SDS011;21379;50.962;6.960;2023-03-19T02:46:03;3.38;;;2.35;;
35245;SDS011;21379;50.962;6.960;2023-03-19T02:48:32;3.72;;;2.10;;
35245;SDS011;21379;50.962;6.960;2023-03-19T02:51:00;4.75;;;2.13;;
35245;SDS011;21379;50.962;6.960;2023-03-19T02:53:27;4.25;;;2.00;;
35245;SDS011;21379;50.962;6.960;2023-03-19T02:55:54;2.45;;;1.50;;
35245;SDS011;21379;50.962;6.960;2023-03-19T02:58:22;3.33;;;1.50;;
35245;SDS011;21379;50.962;6.960;2023-03-19T03:00:49;3.83;;;1.85;;
35245;SDS011;21379;50.962;6.960;2023-03-19T03:03:16;5.65;;;2.25;;
35245;SDS011;21379;50.962;6.960;2023-03-19T03:05:43;4.13;;;1.95;;
35245;SDS011;21379;50.962;6.960;2023-03-19T03:08:10;6.13;;;2.30;;
35245;SDS011;21379;50.962;6.960;2023-03-19T03:10:37;4.35;;;2.00;;
35245;SDS011;21379;50.962;6.960;2023-03-19T03:13:04;7.03;;;1.70;;
35245;SDS011;21379;50.962;6.960;2023-03-19T03:15:32;1.80;;;1.48;;
35245;SDS011;21379;50.962;6.960;2023-03-19T03:17:59;7.57;;;1.55;;
35245;SDS011;21379;50.962;6.960;2023-03-19T03:20:26;3.47;;;1.60;;
35245;SDS011;21379;50.962;6.960;2023-03-19T03:22:54;5.60;;;2.10;;
35245;SDS011;21379;50.962;6.960;2023-03-19T03:25:20;3.72;;;1.40;;
35245;SDS011;21379;50.962;6.960;2023-03-19T03:27:47;4.47;;;1.85;;
35245;SDS011;21379;50.962;6.960;2023-03-19T03:30:15;5.90;;;2.58;;
35245;SDS011;21379;50.962;6.960;2023-03-19T03:32:43;2.00;;;1.65;;
35245;SDS011;21379;50.962;6.960;2023-03-19T03:35:10;6.90;;;1.83;;
35245;SDS011;21379;50.962;6.960;2023-03-19T03:37:39;5.10;;;2.35;;
35245;SDS011;21379;50.962;6.960;2023-03-19T03:40:08;4.75;;;2.00;;
35245;SDS011;21379;50.962;6.960;2023-03-19T03:42:36;4.70;;;1.65;;
35245;SDS011;21379;50.962;6.960;2023-03-19T03:45:06;4.43;;;1.35;;
35245;SDS011;21379;50.962;6.960;2023-03-19T03:47:35;2.60;;;1.35;;
35245;SDS011;21379;50.962;6.960;2023-03-19T03:50:05;4.60;;;1.52;;
35245;SDS011;21379;50.962;6.960;2023-03-19T03:52:35;5.47;;;1.40;;
35245;SDS011;21379;50.962;6.960;2023-03-19T03:55:02;3.90;;;1.30;;
35245;SDS011;21379;50.962;6.960;2023-03-19T03:57:29;2.25;;;1.48;;
35245;SDS011;21379;50.962;6.960;2023-03-19T03:59:56;6.45;;;1.63;;
35245;SDS011;21379;50.962;6.960;2023-03-19T04:02:23;3.63;;;1.15;;
35245;SDS011;21379;50.962;6.960;2023-03-19T04:04:51;2.15;;;1.02;;
35245;SDS011;21379;50.962;6.960;2023-03-19T04:07:20;3.58;;;1.75;;
35245;SDS011;21379;50.962;6.960;2023-03-19T04:09:52;2.58;;;1.30;;
35245;SDS011;21379;50.962;6.960;2023-03-19T04:12:19;4.70;;;1.27;;
35245;SDS011;21379;50.962;6.960;2023-03-19T04:14:47;2.40;;;1.40;;
35245;SDS011;21379;50.962;6.960;2023-03-19T04:17:14;2.33;;;1.27;;
35245;SDS011;21379;50.962;6.960;2023-03-19T04:19:41;7.88;;;1.17;;
35245;SDS011;21379;50.962;6.960;2023-03-19T04:22:08;2.25;;;1.13;;
35245;SDS011;21379;50.962;6.960;2023-03-19T04:24:37;1.48;;;1.23;;
35245;SDS011;21379;50.962;6.960;2023-03-19T04:27:05;4.65;;;1.27;;
35245;SDS011;21379;50.962;6.960;2023-03-19T04:29:33;2.97;;;1.08;;
35245;SDS011;21379;50.962;6.960;2023-03-19T04:32:01;4.28;;;1.33;;
35245;SDS011;21379;50.962;6.960;2023-03-19T04:34:28;1.67;;;0.98;;
35245;SDS011;21379;50.962;6.960;2023-03-19T04:36:56;2.30;;;1.40;;
35245;SDS011;21379;50.962;6.960;2023-03-19T04:39:24;2.40;;;1.20;;
35245;SDS011;21379;50.962;6.960;2023-03-19T04:41:52;1.48;;;0.93;;
35245;SDS011;21379;50.962;6.960;2023-03-19T04:44:31;1.90;;;1.13;;
35245;SDS011;21379;50.962;6.960;2023-03-19T04:46:59;1.17;;;1.00;;
35245;SDS011;21379;50.962;6.960;2023-03-19T04:49:30;3.83;;;1.25;;
35245;SDS011;21379;50.962;6.960;2023-03-19T04:51:57;2.67;;;1.52;;
35245;SDS011;21379;50.962;6.960;2023-03-19T04:54:25;0.98;;;0.80;;
35245;SDS011;21379;50.962;6.960;2023-03-19T04:56:53;2.47;;;1.48;;
35245;SDS011;21379;50.962;6.960;2023-03-19T04:59:23;3.28;;;0.77;;
35245;SDS011;21379;50.962;6.960;2023-03-19T05:01:50;1.98;;;0.98;;
35245;SDS011;21379;50.962;6.960;2023-03-19T05:04:20;2.78;;;1.35;;
35245;SDS011;21379;50.962;6.960;2023-03-19T05:06:53;0.90;;;0.90;;
35245;SDS011;21379;50.962;6.960;2023-03-19T05:09:21;3.50;;;1.08;;
35245;SDS011;21379;50.962;6.960;2023-03-19T05:11:48;2.33;;;0.95;;
35245;SDS011;21379;50.962;6.960;2023-03-19T05:14:20;2.33;;;0.93;;
35245;SDS011;21379;50.962;6.960;2023-03-19T05:17:05;0.93;;;0.68;;
35245;SDS011;21379;50.962;6.960;2023-03-19T05:19:46;3.92;;;1.10;;
35245;SDS011;21379;50.962;6.960;2023-03-19T05:22:14;3.47;;;0.98;;
35245;SDS011;21379;50.962;6.960;2023-03-19T05:24:41;1.20;;;0.85;;
35245;SDS011;21379;50.962;6.960;2023-03-19T05:27:08;1.50;;;1.08;;
35245;SDS011;21379;50.962;6.960;2023-03-19T05:29:49;3.67;;;1.27;;
35245;SDS011;21379;50.962;6.960;2023-03-19T05:32:22;1.10;;;0.63;;
35245;SDS011;21379;50.962;6.960;2023-03-19T05:34:50;1.38;;;0.95;;
35245;SDS011;21379;50.962;6.960;2023-03-19T05:37:18;1.65;;;1.13;;
35245;SDS011;21379;50.962;6.960;2023-03-19T05:39:51;1.00;;;0.90;;
35245;SDS011;21379;50.962;6.960;2023-03-19T05:42:18;4.20;;;1.73;;
35245;SDS011;21379;50.962;6.960;2023-03-19T05:44:46;1.98;;;1.40;;
35245;SDS011;21379;50.962;6.960;2023-03-19T05:47:22;1.42;;;0.93;;
35245;SDS011;21379;50.962;6.960;2023-03-19T05:49:53;1.55;;;1.15;;
35245;SDS011;21379;50.962;6.960;2023-03-19T05:52:21;3.42;;;1.20;;
35245;SDS011;21379;50.962;6.960;2023-03-19T05:54:49;2.97;;;1.30;;
35245;SDS011;21379;50.962;6.960;2023-03-19T05:57:35;1.50;;;0.98;;
35245;SDS011;21379;50.962;6.960;2023-03-19T06:00:06;1.67;;;1.05;;
35245;SDS011;21379;50.962;6.960;2023-03-19T06:02:35;1.48;;;0.50;;
35245;SDS011;21379;50.962;6.960;2023-03-19T06:05:28;1.98;;;1.33;;
35245;SDS011;21379;50.962;6.960;2023-03-19T06:08:25;4.82;;;1.08;;
35245;SDS011;21379;50.962;6.960;2023-03-19T06:11:01;1.15;;;0.82;;
35245;SDS011;21379;50.962;6.960;2023-03-19T06:13:28;3.45;;;1.60;;
35245;SDS011;21379;50.962;6.960;2023-03-19T06:15:57;4.13;;;1.02;;
35245;SDS011;21379;50.962;6.960;2023-03-19T06:18:34;2.15;;;0.98;;
35245;SDS011;21379;50.962;6.960;2023-03-19T06:21:07;0.90;;;0.80;;
35245;SDS011;21379;50.962;6.960;2023-03-19T06:23:34;2.13;;;0.82;;
35245;SDS011;21379;50.962;6.960;2023-03-19T06:26:03;0.90;;;0.70;;
35245;SDS011;21379;50.962;6.960;2023-03-19T06:28:35;2.15;;;1.02;;
35245;SDS011;21379;50.962;6.960;2023-03-19T06:31:03;1.10;;;0.90;;
35245;SDS011;21379;50.962;6.960;2023-03-19T06:33:56;1.38;;;0.90;;
35245;SDS011;21379;50.962;6.960;2023-03-19T06:36:30;1.65;;;0.85;;
35245;SDS011;21379;50.962;6.960;2023-03-19T06:38:57;2.90;;;0.80;;
35245;SDS011;21379;50.962;6.960;2023-03-19T06:41:24;1.30;;;0.77;;
35245;SDS011;21379;50.962;6.960;2023-03-19T06:43:58;0.93;;;0.63;;
35245;SDS011;21379;50.962;6.960;2023-03-19T06:46:25;1.52;;;1.00;;
35245;SDS011;21379;50.962;6.960;2023-03-19T06:48:52;2.33;;;1.00;;
35245;SDS011;21379;50.962;6.960;2023-03-19T06:51:20;1.25;;;0.77;;
35245;SDS011;21379;50.962;6.960;2023-03-19T06:53:47;3.70;;;0.80;;
35245;SDS011;21379;50.962;6.960;2023-03-19T06:56:14;1.30;;;0.70;;
35245;SDS011;21379;50.962;6.960;2023-03-19T06:58:41;1.42;;;0.90;;
35245;SDS011;21379;50.962;6.960;2023-03-19T07:01:08;2.08;;;0.70;;
35245;SDS011;21379;50.962;6.960;2023-03-19T07:03:35;4.60;;;0.82;;
35245;SDS011;21379;50.962;6.960;2023-03-19T07:06:02;2.05;;;0.60;;
35245;SDS011;21379;50.962;6.960;2023-03-19T07:08:31;3.85;;;0.90;;
35245;SDS011;21379;50.962;6.960;2023-03-19T07:11:01;0.52;;;0.50;;
35245;SDS011;21379;50.962;6.960;2023-03-19T07:13:29;1.38;;;0.75;;
35245;SDS011;21379;50.962;6.960;2023-03-19T07:15:57;6.97;;;0.85;;
35245;SDS011;21379;50.962;6.960;2023-03-19T07:18:24;1.40;;;0.80;;
35245;SDS011;21379;50.962;6.960;2023-03-19T07:20:51;4.25;;;0.80;;
35245;SDS011;21379;50.962;6.960;2023-03-19T07:23:18;1.00;;;0.77;;
35245;SDS011;21379;50.962;6.960;2023-03-19T07:25:46;1.02;;;0.75;;
35245;SDS011;21379;50.962;6.960;2023-03-19T07:28:13;2.05;;;0.60;;
35245;SDS011;21379;50.962;6.960;2023-03-19T07:30:40;0.82;;;0.60;;
35245;SDS011;21379;50.962;6.960;2023-03-19T07:33:07;1.50;;;0.68;;
35245;SDS011;21379;50.962;6.960;2023-03-19T07:35:35;0.93;;;0.60;;
35245;SDS011;21379;50.962;6.960;2023-03-19T07:38:01;0.95;;;0.52;;
35245;SDS011;21379;50.962;6.960;2023-03-19T07:40:28;0.82;;;0.65;;
35245;SDS011;21379;50.962;6.960;2023-03-19T07:42:57;1.13;;;0.60;;
35245;SDS011;21379;50.962;6.960;2023-03-19T07:45:23;1.33;;;0.70;;
35245;SDS011;21379;50.962;6.960;2023-03-19T07:47:50;1.38;;;0.70;;
35245;SDS011;21379;50.962;6.960;2023-03-19T07:50:17;1.55;;;0.32;;
35245;SDS011;21379;50.962;6.960;2023-03-19T07:52:45;1.00;;;0.90;;
35245;SDS011;21379;50.962;6.960;2023-03-19T07:55:12;1.92;;;0.57;;
35245;SDS011;21379;50.962;6.960;2023-03-19T07:57:39;0.88;;;0.60;;
35245;SDS011;21379;50.962;6.960;2023-03-19T08:00:08;0.43;;;0.43;;
35245;SDS011;21379;50.962;6.960;2023-03-19T08:02:41;2.00;;;0.75;;
35245;SDS011;21379;50.962;6.960;2023-03-19T08:05:08;2.55;;;1.20;;
35245;SDS011;21379;50.962;6.960;2023-03-19T08:07:36;0.65;;;0.50;;
35245;SDS011;21379;50.962;6.960;2023-03-19T08:10:03;5.05;;;0.60;;
35245;SDS011;21379;50.962;6.960;2023-03-19T08:12:32;1.30;;;0.60;;
35245;SDS011;21379;50.962;6.960;2023-03-19T08:15:04;0.57;;;0.38;;
35245;SDS011;21379;50.962;6.960;2023-03-19T08:17:34;2.03;;;0.82;;
35245;SDS011;21379;50.962;6.960;2023-03-19T08:20:03;0.75;;;0.50;;
35245;SDS011;21379;50.962;6.960;2023-03-19T08:22:33;1.13;;;0.60;;
35245;SDS011;21379;50.962;6.960;2023-03-19T08:25:00;1.55;;;0.73;;
35245;SDS011;21379;50.962;6.960;2023-03-19T08:27:28;3.47;;;0.77;;
35245;SDS011;21379;50.962;6.960;2023-03-19T08:29:55;1.20;;;0.82;;
35245;SDS011;21379;50.962;6.960;2023-03-19T08:32:23;1.30;;;0.75;;
35245;SDS011;21379;50.962;6.960;2023-03-19T08:34:51;0.80;;;0.70;;
35245;SDS011;21379;50.962;6.960;2023-03-19T08:37:18;0.68;;;0.55;;
35245;SDS011;21379;50.962;6.960;2023-03-19T08:39:45;2.58;;;0.85;;
35245;SDS011;21379;50.962;6.960;2023-03-19T08:42:12;1.42;;;0.93;;
35245;SDS011;21379;50.962;6.960;2023-03-19T08:44:39;2.47;;;1.33;;
35245;SDS011;21379;50.962;6.960;2023-03-19T08:47:06;1.15;;;0.80;;
35245;SDS011;21379;50.962;6.960;2023-03-19T08:49:33;2.22;;;0.57;;
35245;SDS011;21379;50.962;6.960;2023-03-19T08:52:01;1.25;;;0.82;;
35245;SDS011;21379;50.962;6.960;2023-03-19T08:54:28;2.03;;;0.95;;
35245;SDS011;21379;50.962;6.960;2023-03-19T08:56:56;7.15;;;1.42;;
35245;SDS011;21379;50.962;6.960;2023-03-19T08:59:22;1.17;;;0.90;;
35245;SDS011;21379;50.962;6.960;2023-03-19T09:01:50;0.85;;;0.85;;
35245;SDS011;21379;50.962;6.960;2023-03-19T09:04:17;1.50;;;1.00;;
35245;SDS011;21379;50.962;6.960;2023-03-19T09:06:44;3.83;;;1.33;;
35245;SDS011;21379;50.962;6.960;2023-03-19T09:09:16;2.15;;;1.27;;
35245;SDS011;21379;50.962;6.960;2023-03-19T09:11:43;2.35;;;0.95;;
35245;SDS011;21379;50.962;6.960;2023-03-19T09:14:11;1.88;;;1.10;;
35245;SDS011;21379;50.962;6.960;2023-03-19T09:16:38;2.08;;;0.98;;
35245;SDS011;21379;50.962;6.960;2023-03-19T09:19:05;1.85;;;1.05;;
35245;SDS011;21379;50.962;6.960;2023-03-19T09:21:32;7.80;;;1.27;;
35245;SDS011;21379;50.962;6.960;2023-03-19T09:23:59;1.02;;;0.88;;
35245;SDS011;21379;50.962;6.960;2023-03-19T09:26:28;1.50;;;0.85;;
35245;SDS011;21379;50.962;6.960;2023-03-19T09:28:55;3.28;;;1.52;;
35245;SDS011;21379;50.962;6.960;2023-03-19T09:31:22;1.20;;;1.08;;
35245;SDS011;21379;50.962;6.960;2023-03-19T09:33:50;2.00;;;1.13;;
35245;SDS011;21379;50.962;6.960;2023-03-19T09:36:17;1.90;;;1.17;;
35245;SDS011;21379;50.962;6.960;2023-03-19T09:38:44;1.60;;;1.30;;
35245;SDS011;21379;50.962;6.960;2023-03-19T09:41:12;2.35;;;1.10;;
35245;SDS011;21379;50.962;6.960;2023-03-19T09:43:55;1.85;;;1.15;;
35245;SDS011;21379;50.962;6.960;2023-03-19T09:46:26;3.67;;;1.10;;
35245;SDS011;21379;50.962;6.960;2023-03-19T09:49:01;1.73;;;1.25;;
35245;SDS011;21379;50.962;6.960;2023-03-19T09:51:34;1.73;;;1.20;;
35245;SDS011;21379;50.962;6.960;2023-03-19T09:54:12;1.33;;;0.93;;
35245;SDS011;21379;50.962;6.960;2023-03-19T09:56:47;4.40;;;1.25;;
35245;SDS011;21379;50.962;6.960;2023-03-19T09:59:16;1.10;;;0.80;;
35245;SDS011;21379;50.962;6.960;2023-03-19T10:01:44;2.42;;;1.10;;
35245;SDS011;21379;50.962;6.960;2023-03-19T10:04:18;2.63;;;1.65;;
35245;SDS011;21379;50.962;6.960;2023-03-19T10:07:07;3.65;;;1.20;;
35245;SDS011;21379;50.962;6.960;2023-03-19T10:09:46;3.35;;;1.42;;
35245;SDS011;21379;50.962;6.960;2023-03-19T10:12:26;1.63;;;0.90;;
35245;SDS011;21379;50.962;6.960;2023-03-19T10:15:11;4.50;;;1.70;;
35245;SDS011;21379;50.962;6.960;2023-03-19T10:17:47;2.28;;;1.17;;
35245;SDS011;21379;50.962;6.960;2023-03-19T10:20:24;1.88;;;1.20;;
35245;SDS011;21379;50.962;6.960;2023-03-19T10:22:58;1.48;;;0.80;;
35245;SDS011;21379;50.962;6.960;2023-03-19T10:25:36;2.13;;;0.90;;
35245;SDS011;21379;50.962;6.960;2023-03-19T10:28:10;1.00;;;0.90;;
35245;SDS011;21379;50.962;6.960;2023-03-19T10:30:40;1.67;;;0.80;;
35245;SDS011;21379;50.962;6.960;2023-03-19T10:33:13;1.77;;;1.10;;
35245;SDS011;21379;50.962;6.960;2023-03-19T10:35:47;1.92;;;0.93;;
35245;SDS011;21379;50.962;6.960;2023-03-19T10:38:22;1.63;;;1.00;;
35245;SDS011;21379;50.962;6.960;2023-03-19T10:40:55;1.58;;;0.95;;
35245;SDS011;21379;50.962;6.960;2023-03-19T10:43:36;0.93;;;0.75;;
35245;SDS011;21379;50.962;6.960;2023-03-19T10:46:12;1.77;;;1.08;;
35245;SDS011;21379;50.962;6.960;2023-03-19T10:48:41;2.85;;;0.98;;
35245;SDS011;21379;50.962;6.960;2023-03-19T10:51:10;2.97;;;0.88;;
35245;SDS011;21379;50.962;6.960;2023-03-19T10:53:40;1.00;;;0.68;;
35245;SDS011;21379;50.962;6.960;2023-03-19T10:56:14;1.15;;;0.90;;
35245;SDS011;21379;50.962;6.960;2023-03-19T10:58:54;1.25;;;0.90;;
35245;SDS011;21379;50.962;6.960;2023-03-19T11:01:30;0.90;;;0.90;;
35245;SDS011;21379;50.962;6.960;2023-03-19T11:03:59;1.67;;;1.27;;
35245;SDS011;21379;50.962;6.960;2023-03-19T11:06:30;3.22;;;1.13;;
35245;SDS011;21379;50.962;6.960;2023-03-19T11:08:58;1.63;;;1.00;;
35245;SDS011;21379;50.962;6.960;2023-03-19T11:11:33;5.43;;;1.23;;
35245;SDS011;21379;50.962;6.960;2023-03-19T11:16:46;3.00;;;1.05;;
35245;SDS011;21379;50.962;6.960;2023-03-19T11:19:15;1.45;;;1.23;;
35245;SDS011;21379;50.962;6.960;2023-03-19T11:21:52;3.40;;;1.35;;
35245;SDS011;21379;50.962;6.960;2023-03-19T11:24:26;2.22;;;1.13;;
35245;SDS011;21379;50.962;6.960;2023-03-19T11:26:57;3.22;;;1.02;;
35245;SDS011;21379;50.962;6.960;2023-03-19T11:29:25;3.72;;;1.25;;
35245;SDS011;21379;50.962;6.960;2023-03-19T11:31:56;1.30;;;1.00;;
35245;SDS011;21379;50.962;6.960;2023-03-19T11:34:32;3.17;;;1.05;;
35245;SDS011;21379;50.962;6.960;2023-03-19T11:37:06;9.35;;;1.67;;
35245;SDS011;21379;50.962;6.960;2023-03-19T11:39:41;13.05;;;1.58;;
35245;SDS011;21379;50.962;6.960;2023-03-19T11:42:30;1.10;;;1.00;;
35245;SDS011;21379;50.962;6.960;2023-03-19T11:45:06;1.40;;;1.20;;
35245;SDS011;21379;50.962;6.960;2023-03-19T11:47:45;1.75;;;1.05;;
35245;SDS011;21379;50.962;6.960;2023-03-19T11:50:23;0.90;;;0.75;;
35245;SDS011;21379;50.962;6.960;2023-03-19T11:53:00;2.05;;;0.75;;
35245;SDS011;21379;50.962;6.960;2023-03-19T11:55:37;3.05;;;1.00;;
35245;SDS011;21379;50.962;6.960;2023-03-19T12:01:14;5.32;;;1.33;;
35245;SDS011;21379;50.962;6.960;2023-03-19T12:04:01;3.20;;;1.08;;
35245;SDS011;21379;50.962;6.960;2023-03-19T12:06:44;1.75;;;1.13;;
35245;SDS011;21379;50.962;6.960;2023-03-19T12:09:22;1.25;;;0.80;;
35245;SDS011;21379;50.962;6.960;2023-03-19T12:11:55;2.20;;;0.95;;
35245;SDS011;21379;50.962;6.960;2023-03-19T12:14:33;1.45;;;1.30;;
35245;SDS011;21379;50.962;6.960;2023-03-19T12:17:15;11.25;;;1.17;;
35245;SDS011;21379;50.962;6.960;2023-03-19T12:20:02;3.70;;;0.95;;
35245;SDS011;21379;50.962;6.960;2023-03-19T12:22:44;1.20;;;1.10;;
35245;SDS011;21379;50.962;6.960;2023-03-19T12:25:23;3.60;;;1.17;;
35245;SDS011;21379;50.962;6.960;2023-03-19T12:27:59;4.35;;;1.38;;
35245;SDS011;21379;50.962;6.960;2023-03-19T12:30:33;1.52;;;1.10;;
35245;SDS011;21379;50.962;6.960;2023-03-19T12:33:08;1.27;;;1.00;;
35245;SDS011;21379;50.962;6.960;2023-03-19T12:38:11;1.10;;;0.95;;
35245;SDS011;21379;50.962;6.960;2023-03-19T12:40:44;1.35;;;0.80;;
35245;SDS011;21379;50.962;6.960;2023-03-19T12:43:17;0.60;;;0.55;;
35245;SDS011;21379;50.962;6.960;2023-03-19T12:45:49;1.30;;;0.90;;
35245;SDS011;21379;50.962;6.960;2023-03-19T12:48:22;0.98;;;0.88;;
35245;SDS011;21379;50.962;6.960;2023-03-19T12:50:55;1.17;;;0.98;;
35245;SDS011;21379;50.962;6.960;2023-03-19T12:53:29;1.17;;;0.70;;
35245;SDS011;21379;50.962;6.960;2023-03-19T12:56:01;1.52;;;1.00;;
35245;SDS011;21379;50.962;6.960;2023-03-19T12:58:36;1.67;;;1.05;;
35245;SDS011;21379;50.962;6.960;2023-03-19T13:01:11;4.10;;;1.42;;
35245;SDS011;21379;50.962;6.960;2023-03-19T13:03:42;6.65;;;2.40;;
35245;SDS011;21379;50.962;6.960;2023-03-19T13:06:18;2.70;;;0.80;;
35245;SDS011;21379;50.962;6.960;2023-03-19T13:08:49;1.02;;;0.82;;
35245;SDS011;21379;50.962;6.960;2023-03-19T13:11:23;1.13;;;0.77;;
35245;SDS011;21379;50.962;6.960;2023-03-19T13:14:00;0.73;;;0.73;;
35245;SDS011;21379;50.962;6.960;2023-03-19T13:16:37;2.30;;;0.93;;
35245;SDS011;21379;50.962;6.960;2023-03-19T13:19:12;0.93;;;0.77;;
35245;SDS011;21379;50.962;6.960;2023-03-19T13:21:47;0.90;;;0.60;;
35245;SDS011;21379;50.962;6.960;2023-03-19T13:24:18;1.30;;;0.80;;
35245;SDS011;21379;50.962;6.960;2023-03-19T13:26:49;2.95;;;0.77;;
35245;SDS011;21379;50.962;6.960;2023-03-19T16:21:43;3.20;;;2.53;;
35245;SDS011;21379;50.962;6.960;2023-03-19T16:24:12;3.88;;;2.42;;
35245;SDS011;21379;50.962;6.960;2023-03-19T16:26:48;4.95;;;2.53;;
35245;SDS011;21379;50.962;6.960;2023-03-19T16:29:16;5.65;;;2.72;;
35245;SDS011;21379;50.962;6.960;2023-03-19T16:31:47;4.60;;;2.53;;
35245;SDS011;21379;50.962;6.960;2023-03-19T16:34:21;4.45;;;3.35;;
35245;SDS011;21379;50.962;6.960;2023-03-19T16:36:52;3.00;;;2.42;;
35245;SDS011;21379;50.962;6.960;2023-03-19T16:39:25;6.18;;;3.60;;
35245;SDS011;21379;50.962;6.960;2023-03-19T16:45:07;5.50;;;2.55;;
35245;SDS011;21379;50.962;6.960;2023-03-19T16:47:45;8.23;;;3.13;;
35245;SDS011;21379;50.962;6.960;2023-03-19T16:50:14;6.85;;;3.35;;
35245;SDS011;21379;50.962;6.960;2023-03-19T16:52:43;6.53;;;3.05;;
35245;SDS011;21379;50.962;6.960;2023-03-19T16:55:15;6.22;;;2.70;;
35245;SDS011;21379;50.962;6.960;2023-03-19T16:57:45;4.10;;;2.85;;
35245;SDS011;21379;50.962;6.960;2023-03-19T17:00:21;11.82;;;2.70;;
35245;SDS011;21379;50.962;6.960;2023-03-19T17:02:50;3.67;;;1.88;;
35245;SDS011;21379;50.962;6.960;2023-03-19T17:05:17;2.60;;;2.08;;
35245;SDS011;21379;50.962;6.960;2023-03-19T17:07:45;2.63;;;1.45;;
35245;SDS011;21379;50.962;6.960;2023-03-19T17:10:13;1.95;;;1.40;;
35245;SDS011;21379;50.962;6.960;2023-03-19T17:12:41;4.07;;;1.77;;
35245;SDS011;21379;50.962;6.960;2023-03-19T17:15:15;2.45;;;1.60;;
35245;SDS011;21379;50.962;6.960;2023-03-19T17:17:47;2.72;;;1.90;;
35245;SDS011;21379;50.962;6.960;2023-03-19T17:20:15;2.75;;;2.00;;
35245;SDS011;21379;50.962;6.960;2023-03-19T17:22:46;7.13;;;2.10;;
35245;SDS011;21379;50.962;6.960;2023-03-19T17:25:14;2.97;;;1.90;;
35245;SDS011;21379;50.962;6.960;2023-03-19T17:27:43;4.78;;;1.92;;
35245;SDS011;21379;50.962;6.960;2023-03-19T17:30:10;5.72;;;2.33;;
35245;SDS011;21379;50.962;6.960;2023-03-19T17:32:38;4.93;;;2.83;;
35245;SDS011;21379;50.962;6.960;2023-03-19T17:35:12;4.15;;;2.95;;
35245;SDS011;21379;50.962;6.960;2023-03-19T17:37:41;5.05;;;3.25;;
35245;SDS011;21379;50.962;6.960;2023-03-19T17:40:19;9.30;;;3.55;;
35245;SDS011;21379;50.962;6.960;2023-03-19T17:42:47;10.45;;;3.85;;
35245;SDS011;21379;50.962;6.960;2023-03-19T17:45:15;7.85;;;3.85;;
35245;SDS011;21379;50.962;6.960;2023-03-19T17:47:45;7.95;;;4.03;;
35245;SDS011;21379;50.962;6.960;2023-03-19T17:50:15;6.72;;;3.58;;
35245;SDS011;21379;50.962;6.960;2023-03-19T17:52:43;6.50;;;3.17;;
35245;SDS011;21379;50.962;6.960;2023-03-19T17:55:15;5.93;;;2.75;;
35245;SDS011;21379;50.962;6.960;2023-03-19T17:57:44;5.93;;;3.08;;
35245;SDS011;21379;50.962;6.960;2023-03-19T18:00:12;6.28;;;2.85;;
35245;SDS011;21379;50.962;6.960;2023-03-19T18:02:39;5.57;;;2.83;;
35245;SDS011;21379;50.962;6.960;2023-03-19T18:05:12;9.38;;;3.30;;
35245;SDS011;21379;50.962;6.960;2023-03-19T18:07:41;9.27;;;3.42;;
35245;SDS011;21379;50.962;6.960;2023-03-19T18:10:12;8.40;;;3.40;;
35245;SDS011;21379;50.962;6.960;2023-03-19T18:12:41;9.80;;;4.15;;
35245;SDS011;21379;50.962;6.960;2023-03-19T18:15:10;5.75;;;3.47;;